Belpre, Ohio
Current Conditions -  °F | °C
As of 5:21 AM on Thursday 27 Nov 2014 (Local Time) from KPKB Reporting Station
Haze Haze  
Wind Chill: 34°   Ceiling: 500
Heat Index: 34°   Visibility: 3mi
Dew Point: 32°   Wind: 3mph
Humidity: 92%   Direction: 280°W
Pressure: 30.05"   Gusts: NA
Location:  39.28°N, 81.57°W
Report Text: KPKB 271021Z AUTO 28003KT 3SM BR OVC005 01/00 A3005 RMK AO2 CIG 002V008 T00110000
Loading
Personal Weather Stations






























Interactive Weather Map New forecast layout! Learn more

10-Day Weather Forecast

Advertisements
Track Severe Weather on mobile